KR-0462 weather

Hanjin Family Town Apartments Heliport
Busan, Busan Gwang'yeogsi, South Korea

Public forecast

Using degrees Celsius for public forecast. Weather courtesy of forecast.io.

Closest aviation weather report (METAR) to Hanjin Family Town Apartments Heliport

Closest report is Gimhae International Airport, 9.2 nm (17.1 km) WNW. Retrieved 2019/12/13 15:00 UTC (55 minutes ago):

RKPK 131500Z 36002KT CAVOK 01/M04 Q1024

Closest aviation forecast (TAF) to Hanjin Family Town Apartments Heliport

Forecast is more than 6 hours old.

Closest forecast is Gimhae International Airport, 9.2 nm (17.1 km) WNW. Retrieved 2019/12/13 06:00 UTC (10 hours ago):

TAF RKPK 130500Z 1306/1412 21006KT 9999 FEW030 BKN200 TNM02/1322Z TX09/1405Z BECMG 1311/1312 33006KT